createdAt,value
2022-12-28T00:02:28.282Z,2.72
2022-12-28T00:05:00.242Z,2.71
2022-12-28T00:07:31.839Z,2.71
2022-12-28T00:10:03.538Z,2.74
2022-12-28T00:12:35.238Z,2.79
2022-12-28T00:15:08.308Z,2.83
2022-12-28T00:17:39.910Z,2.86
2022-12-28T00:20:13.817Z,2.86
2022-12-28T00:22:45.449Z,2.87
2022-12-28T00:25:17.787Z,2.90
2022-12-28T00:27:50.552Z,2.89
2022-12-28T00:30:22.265Z,2.88
2022-12-28T00:32:54.123Z,2.88
2022-12-28T00:35:25.750Z,2.86
2022-12-28T00:37:57.365Z,2.86
2022-12-28T00:40:29.192Z,2.84
2022-12-28T00:43:00.820Z,2.81
2022-12-28T00:45:32.481Z,2.76
2022-12-28T00:48:04.427Z,2.77
2022-12-28T00:50:36.071Z,2.79
2022-12-28T00:53:08.124Z,2.80
2022-12-28T00:55:40.111Z,2.80
2022-12-28T00:58:12.326Z,2.78
2022-12-28T01:00:44.032Z,2.79
2022-12-28T01:03:15.763Z,2.77
2022-12-28T01:05:47.570Z,2.73
2022-12-28T01:08:19.201Z,2.69
2022-12-28T01:10:51.120Z,2.66
2022-12-28T01:13:22.836Z,2.60
2022-12-28T01:15:54.435Z,2.56
2022-12-28T01:18:26.138Z,2.52
2022-12-28T01:20:57.719Z,2.46
2022-12-28T01:23:29.280Z,2.45
2022-12-28T01:26:05.513Z,2.47
2022-12-28T01:28:37.598Z,2.48
2022-12-28T01:31:11.679Z,2.48
2022-12-28T01:33:43.643Z,2.48
2022-12-28T01:36:17.418Z,2.43
2022-12-28T01:38:49.871Z,2.39
2022-12-28T01:41:22.729Z,2.36
2022-12-28T01:44:25.036Z,2.33
2022-12-28T01:46:59.201Z,2.30
2022-12-28T01:49:34.199Z,2.27
2022-12-28T01:52:11.368Z,2.25
2022-12-28T01:54:46.851Z,2.23
2022-12-28T01:57:19.776Z,2.19
2022-12-28T01:59:55.953Z,2.16
2022-12-28T02:02:29.236Z,2.14
2022-12-28T02:05:00.256Z,2.09
2022-12-28T02:07:41.186Z,2.05
2022-12-28T02:10:43.733Z,2.04
2022-12-28T02:13:08.526Z,2.01
2022-12-28T02:15:40.241Z,1.95
2022-12-28T02:18:13.648Z,1.88
2022-12-28T02:21:00.821Z,1.77
2022-12-28T02:23:50.223Z,1.68
2022-12-28T02:26:44.661Z,1.59
2022-12-28T02:29:29.497Z,1.47
2022-12-28T02:32:18.118Z,1.29
2022-12-28T02:35:00.208Z,1.16
2022-12-28T02:37:37.880Z,1.03
2022-12-28T02:40:14.630Z,0.96
2022-12-28T02:42:47.533Z,0.93
2022-12-28T02:45:54.287Z,0.90
2022-12-28T02:48:44.667Z,0.87
2022-12-28T02:51:33.255Z,0.83
2022-12-28T02:54:47.227Z,0.76
2022-12-28T02:57:29.491Z,0.73
2022-12-28T03:00:09.140Z,0.64
2022-12-28T03:02:54.613Z,0.57
2022-12-28T03:05:55.627Z,0.51
2022-12-28T03:08:37.578Z,0.47
2022-12-28T03:11:15.861Z,0.42
2022-12-28T03:13:54.066Z,0.39
2022-12-28T03:16:30.877Z,0.37
2022-12-28T03:19:24.974Z,0.36
2022-12-28T03:22:15.424Z,0.35
2022-12-28T03:25:05.767Z,0.33
2022-12-28T03:27:56.256Z,0.34
2022-12-28T03:30:45.638Z,0.34
2022-12-28T03:33:17.408Z,0.34
2022-12-28T03:35:56.761Z,0.30
2022-12-28T03:38:34.430Z,0.29
2022-12-28T03:41:10.592Z,0.26
2022-12-28T03:43:47.396Z,0.27
2022-12-28T03:46:23.668Z,0.25
2022-12-28T03:48:56.661Z,0.22
2022-12-28T03:51:31.874Z,0.19
2022-12-28T03:54:03.552Z,0.18
2022-12-28T03:56:35.144Z,0.20
2022-12-28T03:59:06.808Z,0.20
2022-12-28T04:01:38.700Z,0.21
2022-12-28T04:04:11.221Z,0.25
2022-12-28T04:06:44.047Z,0.29
2022-12-28T04:09:16.051Z,0.31
2022-12-28T04:11:47.673Z,0.30
2022-12-28T04:14:19.407Z,0.31
2022-12-28T04:16:51.150Z,0.34
2022-12-28T04:19:22.869Z,0.32
2022-12-28T04:21:54.484Z,0.35
2022-12-28T04:24:26.157Z,0.37
2022-12-28T04:26:57.855Z,0.42
2022-12-28T04:29:29.577Z,0.43
2022-12-28T04:32:01.165Z,0.43
2022-12-28T04:34:32.743Z,0.44
2022-12-28T04:37:04.514Z,0.44
2022-12-28T04:39:54.921Z,0.43
2022-12-28T04:42:28.668Z,0.42
2022-12-28T04:45:00.365Z,0.43
2022-12-28T04:47:32.042Z,0.42
2022-12-28T04:50:03.863Z,0.41
2022-12-28T04:52:36.204Z,0.38
2022-12-28T04:55:32.053Z,0.37
2022-12-28T04:58:01.477Z,0.36
2022-12-28T05:00:33.164Z,0.36
2022-12-28T05:03:05.441Z,0.37
2022-12-28T05:05:38.027Z,0.38
2022-12-28T05:08:09.843Z,0.39
2022-12-28T05:10:41.536Z,0.38
2022-12-28T05:13:13.155Z,0.39
2022-12-28T05:15:44.771Z,0.42
2022-12-28T05:18:16.420Z,0.44
2022-12-28T05:20:48.180Z,0.44
2022-12-28T05:23:19.820Z,0.42
2022-12-28T05:25:57.068Z,0.41
2022-12-28T05:28:29.273Z,0.38
2022-12-28T05:31:04.517Z,0.38
2022-12-28T05:33:37.900Z,0.37
2022-12-28T05:36:13.237Z,0.37
2022-12-28T05:38:45.170Z,0.36
2022-12-28T05:41:18.587Z,0.33
2022-12-28T05:43:50.780Z,0.31
2022-12-28T05:46:24.380Z,0.27
2022-12-28T05:48:56.589Z,0.22
2022-12-28T05:51:30.317Z,0.19
2022-12-28T05:54:04.458Z,0.16
2022-12-28T05:56:36.416Z,0.12
2022-12-28T05:59:09.047Z,0.07
2022-12-28T06:01:44.484Z,0.02
2022-12-28T06:04:19.570Z,-0.04
2022-12-28T06:06:52.182Z,-0.09
2022-12-28T06:09:23.860Z,-0.14
2022-12-28T06:11:55.527Z,-0.20
2022-12-28T06:14:27.121Z,-0.23
2022-12-28T06:16:58.847Z,-0.25
2022-12-28T06:19:30.587Z,-0.28
2022-12-28T06:22:02.171Z,-0.31
2022-12-28T06:24:34.813Z,-0.34
2022-12-28T06:27:06.552Z,-0.33
2022-12-28T06:29:38.133Z,-0.32
2022-12-28T06:32:09.842Z,-0.30
2022-12-28T06:34:41.591Z,-0.28
2022-12-28T06:37:13.323Z,-0.27
2022-12-28T06:39:44.877Z,-0.24
2022-12-28T06:42:16.480Z,-0.26
2022-12-28T06:44:48.129Z,-0.28
2022-12-28T06:47:20.072Z,-0.31
2022-12-28T06:49:51.852Z,-0.31
2022-12-28T06:52:23.544Z,-0.31
2022-12-28T06:54:55.170Z,-0.31
2022-12-28T06:57:26.906Z,-0.31
2022-12-28T06:59:58.698Z,-0.29
2022-12-28T07:02:30.384Z,-0.28
2022-12-28T07:05:02.189Z,-0.30
2022-12-28T07:07:33.769Z,-0.31
2022-12-28T07:10:06.023Z,-0.31
2022-12-28T07:12:37.980Z,-0.29
2022-12-28T07:15:12.272Z,-0.26
2022-12-28T07:17:43.871Z,-0.21
2022-12-28T07:20:15.691Z,-0.19
2022-12-28T07:22:47.529Z,-0.15
2022-12-28T07:25:19.427Z,-0.12
2022-12-28T07:27:51.062Z,-0.05
2022-12-28T07:30:22.834Z,0.01
2022-12-28T07:32:54.645Z,0.07
2022-12-28T07:35:26.963Z,0.12
2022-12-28T07:37:58.534Z,0.17
2022-12-28T07:40:30.219Z,0.20
2022-12-28T07:43:03.323Z,0.26
2022-12-28T07:45:35.140Z,0.31
2022-12-28T07:48:07.177Z,0.36
2022-12-28T07:50:38.857Z,0.40
2022-12-28T07:53:10.461Z,0.45
2022-12-28T07:55:43.565Z,0.52
2022-12-28T07:58:15.199Z,0.57
2022-12-28T08:00:46.825Z,0.59
2022-12-28T08:03:18.556Z,0.65
2022-12-28T08:05:50.303Z,0.70
2022-12-28T08:08:23.963Z,0.72
2022-12-28T08:10:55.701Z,0.75
2022-12-28T08:13:27.328Z,0.80
2022-12-28T08:15:59.075Z,0.86
2022-12-28T08:18:30.981Z,0.90
2022-12-28T08:21:05.634Z,0.96
2022-12-28T08:23:37.300Z,1.04
2022-12-28T08:26:10.770Z,1.12
2022-12-28T08:28:41.775Z,1.19
2022-12-28T08:31:16.111Z,1.27
2022-12-28T08:33:48.752Z,1.33
2022-12-28T08:36:20.412Z,1.39
2022-12-28T08:38:53.181Z,1.46
2022-12-28T08:41:26.652Z,1.53
2022-12-28T08:43:59.241Z,1.59
2022-12-28T08:46:32.634Z,1.65
2022-12-28T08:49:05.787Z,1.72
2022-12-28T08:51:41.514Z,1.80
2022-12-28T08:54:14.874Z,1.89
2022-12-28T08:56:47.518Z,1.95
2022-12-28T08:59:21.346Z,2.03
2022-12-28T09:01:53.085Z,2.07
2022-12-28T09:04:24.894Z,2.12
2022-12-28T09:06:56.683Z,2.18
2022-12-28T09:09:28.565Z,2.26
2022-12-28T09:12:00.168Z,2.36
2022-12-28T09:14:31.831Z,2.42
2022-12-28T09:17:03.810Z,2.48
2022-12-28T09:19:35.792Z,2.54
2022-12-28T09:22:07.512Z,2.63
2022-12-28T09:24:40.177Z,2.70
2022-12-28T09:27:13.480Z,2.77
2022-12-28T09:29:45.862Z,2.84
2022-12-28T09:32:17.491Z,2.88
2022-12-28T09:34:49.083Z,2.94
2022-12-28T09:37:20.943Z,2.98
2022-12-28T09:39:55.579Z,3.01
2022-12-28T09:42:32.791Z,3.04
2022-12-28T09:45:09.782Z,3.06
2022-12-28T09:47:47.458Z,3.08
2022-12-28T09:50:32.438Z,3.09
2022-12-28T09:53:20.067Z,3.14
2022-12-28T09:55:59.573Z,3.17
2022-12-28T09:58:33.667Z,3.20
2022-12-28T10:01:10.735Z,3.25
2022-12-28T10:03:45.339Z,3.28
2022-12-28T10:06:18.788Z,3.29
2022-12-28T10:08:53.011Z,3.29
2022-12-28T10:11:29.300Z,3.30
2022-12-28T10:14:04.521Z,3.33
2022-12-28T10:16:36.730Z,3.36
2022-12-28T10:19:12.655Z,3.41
2022-12-28T10:21:46.389Z,3.46
2022-12-28T10:24:33.543Z,3.48
2022-12-28T10:27:08.625Z,3.46
2022-12-28T10:29:42.787Z,3.45
2022-12-28T10:32:14.691Z,3.46
2022-12-28T10:34:58.577Z,3.47
2022-12-28T10:37:30.358Z,3.47
2022-12-28T10:40:07.394Z,3.45
2022-12-28T10:42:42.271Z,3.45
2022-12-28T10:45:21.689Z,3.45
2022-12-28T10:47:56.434Z,3.46
2022-12-28T10:50:51.627Z,3.49
2022-12-28T10:53:30.963Z,3.51
2022-12-28T10:56:21.834Z,3.53
2022-12-28T10:58:54.849Z,3.56
2022-12-28T11:01:31.557Z,3.57
2022-12-28T11:04:08.079Z,3.59
2022-12-28T11:06:54.183Z,3.63
2022-12-28T11:09:28.284Z,3.64
2022-12-28T11:12:19.186Z,3.67
2022-12-28T11:14:52.444Z,3.69
2022-12-28T11:17:25.934Z,3.72
2022-12-28T11:20:01.985Z,3.75
2022-12-28T11:22:34.997Z,3.78
2022-12-28T11:25:09.444Z,3.81
2022-12-28T11:27:41.141Z,3.85
2022-12-28T11:30:18.411Z,3.89
2022-12-28T11:32:55.145Z,3.93
2022-12-28T11:35:30.479Z,3.96
2022-12-28T11:38:04.394Z,3.99
2022-12-28T11:40:55.184Z,4.01
2022-12-28T11:43:41.779Z,4.08
2022-12-28T11:46:43.576Z,4.20
2022-12-28T11:49:30.802Z,4.37
2022-12-28T11:52:38.246Z,4.52
2022-12-28T11:55:40.999Z,4.63
2022-12-28T11:58:54.752Z,4.74
2022-12-28T12:01:53.306Z,4.86
2022-12-28T12:04:42.881Z,5.01
2022-12-28T12:07:56.919Z,5.12
2022-12-28T12:10:45.423Z,5.33
2022-12-28T12:13:50.121Z,5.50
2022-12-28T12:16:28.361Z,5.67
2022-12-28T12:19:01.029Z,5.76
2022-12-28T12:21:36.964Z,5.86
2022-12-28T12:24:27.004Z,5.96
2022-12-28T12:27:08.694Z,6.09
2022-12-28T12:29:49.515Z,6.16
2022-12-28T12:32:27.300Z,6.14
2022-12-28T12:35:03.278Z,6.05
2022-12-28T12:37:50.232Z,6.01
2022-12-28T12:40:57.550Z,5.99
2022-12-28T12:43:34.337Z,5.96
2022-12-28T12:46:41.572Z,5.94
2022-12-28T12:49:31.641Z,5.89
2022-12-28T12:52:15.865Z,5.87
2022-12-28T12:54:59.972Z,5.85
2022-12-28T12:57:41.114Z,5.83
2022-12-28T13:00:18.870Z,5.80
2022-12-28T13:03:24.425Z,5.76
2022-12-28T13:05:58.901Z,5.72
2022-12-28T13:08:37.079Z,5.68
2022-12-28T13:11:11.749Z,5.67
2022-12-28T13:13:46.433Z,5.66
2022-12-28T13:16:21.066Z,5.65
2022-12-28T13:18:58.554Z,5.63
2022-12-28T13:21:40.073Z,5.58
2022-12-28T13:24:22.984Z,5.52
2022-12-28T13:26:55.616Z,5.47
2022-12-28T13:29:29.028Z,5.45
2022-12-28T13:32:00.696Z,5.42
2022-12-28T13:34:35.192Z,5.39
2022-12-28T13:37:17.461Z,5.37
2022-12-28T13:39:49.431Z,5.33
2022-12-28T13:42:24.990Z,5.29
2022-12-28T13:45:00.871Z,5.23
2022-12-28T13:47:36.229Z,5.19
2022-12-28T13:50:11.876Z,5.12
2022-12-28T13:52:47.546Z,5.07
2022-12-28T13:55:23.261Z,5.04
2022-12-28T13:58:00.809Z,5.00
2022-12-28T14:00:35.063Z,4.97
2022-12-28T14:03:11.544Z,4.93
2022-12-28T14:05:50.536Z,4.93
2022-12-28T14:08:22.810Z,4.93
2022-12-28T14:10:55.710Z,4.91
2022-12-28T14:13:27.852Z,4.89
2022-12-28T14:16:00.136Z,4.88
2022-12-28T14:18:34.645Z,4.88
2022-12-28T14:21:07.176Z,4.89
2022-12-28T14:23:40.890Z,4.92
2022-12-28T14:26:19.341Z,4.93
2022-12-28T14:28:54.628Z,4.91
2022-12-28T14:31:31.058Z,4.90
2022-12-28T14:34:04.942Z,4.91
2022-12-28T14:36:40.400Z,4.91
2022-12-28T14:39:27.697Z,4.91
2022-12-28T14:42:00.552Z,4.93
2022-12-28T14:44:33.953Z,4.94
2022-12-28T14:47:25.803Z,4.91
2022-12-28T14:50:02.820Z,4.86
2022-12-28T14:52:43.945Z,4.82
2022-12-28T14:55:30.391Z,4.76
2022-12-28T14:58:06.106Z,4.69
2022-12-28T15:00:39.144Z,4.62
2022-12-28T15:03:21.078Z,4.56
2022-12-28T15:05:55.411Z,4.50
2022-12-28T15:08:38.137Z,4.45
2022-12-28T15:11:14.234Z,4.41
2022-12-28T15:13:46.251Z,4.36
2022-12-28T15:16:18.992Z,4.33
2022-12-28T15:18:50.823Z,4.29
2022-12-28T15:21:24.694Z,4.26
2022-12-28T15:23:57.785Z,4.21
2022-12-28T15:26:29.747Z,4.18
2022-12-28T15:29:07.526Z,4.13
2022-12-28T15:31:41.497Z,4.08
2022-12-28T15:34:15.910Z,4.03
2022-12-28T15:36:47.906Z,4.00
2022-12-28T15:39:19.520Z,3.96
2022-12-28T15:41:51.170Z,3.90
2022-12-28T15:44:23.026Z,3.86
2022-12-28T15:46:54.888Z,3.85
2022-12-28T15:49:26.750Z,3.82
2022-12-28T15:51:59.907Z,3.81
2022-12-28T15:54:31.660Z,3.79
2022-12-28T15:57:03.456Z,3.77
2022-12-28T15:59:35.168Z,3.76
2022-12-28T16:02:07.087Z,3.72
2022-12-28T16:04:38.944Z,3.69
2022-12-28T16:07:10.619Z,3.66
2022-12-28T16:09:42.424Z,3.66
2022-12-28T16:12:17.562Z,3.66
2022-12-28T16:14:50.074Z,3.65
2022-12-28T16:17:21.652Z,3.60
2022-12-28T16:19:53.474Z,3.60
2022-12-28T16:22:25.349Z,3.61
2022-12-28T16:24:57.221Z,3.61
2022-12-28T16:27:28.861Z,3.59
2022-12-28T16:30:00.540Z,3.58
2022-12-28T16:32:32.583Z,3.55
2022-12-28T16:35:04.433Z,3.54
2022-12-28T16:37:37.131Z,3.51
2022-12-28T16:40:11.787Z,3.50
2022-12-28T16:42:45.915Z,3.49
2022-12-28T16:45:18.070Z,3.49
2022-12-28T16:47:49.910Z,3.47
2022-12-28T16:50:21.534Z,3.43
2022-12-28T16:52:53.183Z,3.42
2022-12-28T16:55:24.860Z,3.43
2022-12-28T16:57:56.618Z,3.43
2022-12-28T17:00:28.214Z,3.46
2022-12-28T17:03:00.094Z,3.48
2022-12-28T17:05:35.028Z,3.47
2022-12-28T17:08:08.275Z,3.51
2022-12-28T17:10:43.616Z,3.51
2022-12-28T17:13:16.248Z,3.48
2022-12-28T17:15:48.880Z,3.48
2022-12-28T17:18:20.507Z,3.50
2022-12-28T17:20:52.187Z,3.51
2022-12-28T17:23:23.912Z,3.52
2022-12-28T17:25:57.055Z,3.53
2022-12-28T17:28:29.516Z,3.53
2022-12-28T17:31:09.545Z,3.54
2022-12-28T17:33:44.727Z,3.58
2022-12-28T17:36:16.645Z,3.59
2022-12-28T17:38:48.263Z,3.61
2022-12-28T17:41:22.390Z,3.62
2022-12-28T17:43:56.122Z,3.60
2022-12-28T17:46:30.490Z,3.59
2022-12-28T17:49:02.609Z,3.60
2022-12-28T17:51:35.665Z,3.63
2022-12-28T17:54:14.703Z,3.66
2022-12-28T17:56:46.622Z,3.67
2022-12-28T17:59:18.746Z,3.67
2022-12-28T18:01:50.414Z,3.67
2022-12-28T18:04:22.209Z,3.73
2022-12-28T18:06:53.852Z,3.73
2022-12-28T18:09:27.872Z,3.73
2022-12-28T18:12:00.351Z,3.74
2022-12-28T18:14:32.312Z,3.76
2022-12-28T18:17:04.069Z,3.77
2022-12-28T18:19:37.799Z,3.76
2022-12-28T18:22:07.830Z,3.75
2022-12-28T18:24:39.508Z,3.70
2022-12-28T18:27:11.416Z,3.67
2022-12-28T18:29:44.472Z,3.64
2022-12-28T18:32:16.098Z,3.61
2022-12-28T18:34:47.805Z,3.58
2022-12-28T18:37:19.389Z,3.56
2022-12-28T18:39:51.164Z,3.56
2022-12-28T18:42:22.732Z,3.54
2022-12-28T18:44:54.472Z,3.52
2022-12-28T18:47:26.580Z,3.49
2022-12-28T18:49:58.179Z,3.47
2022-12-28T18:52:31.478Z,3.46
2022-12-28T18:55:03.325Z,3.44
2022-12-28T18:57:35.023Z,3.41
2022-12-28T19:00:10.636Z,3.39
2022-12-28T19:02:42.408Z,3.37
2022-12-28T19:05:14.248Z,3.35
2022-12-28T19:07:49.337Z,3.30
2022-12-28T19:10:21.455Z,3.30
2022-12-28T19:12:53.068Z,3.29
2022-12-28T19:15:24.801Z,3.29
2022-12-28T19:17:56.629Z,3.29
2022-12-28T19:20:29.318Z,3.26
2022-12-28T19:23:00.955Z,3.22
2022-12-28T19:25:32.632Z,3.18
2022-12-28T19:28:05.503Z,3.15
2022-12-28T19:30:37.246Z,3.12
2022-12-28T19:33:08.908Z,3.10
2022-12-28T19:35:41.514Z,3.08
2022-12-28T19:38:13.274Z,3.05
2022-12-28T19:40:44.919Z,3.06
2022-12-28T19:43:16.533Z,3.09
2022-12-28T19:45:48.219Z,3.12
2022-12-28T19:48:20.904Z,3.12
2022-12-28T19:50:52.709Z,3.11
2022-12-28T19:53:24.316Z,3.09
2022-12-28T19:56:04.223Z,3.08
2022-12-28T19:58:39.034Z,3.08
2022-12-28T20:01:13.213Z,3.07
2022-12-28T20:03:45.902Z,3.05
2022-12-28T20:06:19.271Z,3.03
2022-12-28T20:08:52.528Z,3.05
2022-12-28T20:11:24.341Z,3.06
2022-12-28T20:13:58.083Z,3.07
2022-12-28T20:16:32.486Z,3.07
2022-12-28T20:19:06.765Z,3.07
2022-12-28T20:21:41.545Z,3.07
2022-12-28T20:24:14.957Z,3.08
2022-12-28T20:26:46.633Z,3.07
2022-12-28T20:29:18.456Z,3.05
2022-12-28T20:31:52.185Z,3.04
2022-12-28T20:34:23.936Z,3.03
2022-12-28T20:36:55.727Z,3.02
2022-12-28T20:39:27.387Z,3.01
2022-12-28T20:42:16.594Z,3.01
2022-12-28T20:44:48.818Z,2.99
2022-12-28T20:47:21.217Z,2.96
2022-12-28T20:49:53.173Z,2.95
2022-12-28T20:52:24.812Z,2.94
2022-12-28T20:54:56.585Z,2.94
2022-12-28T20:57:28.455Z,2.91
2022-12-28T21:00:00.069Z,2.93
2022-12-28T21:02:31.920Z,2.93
2022-12-28T21:05:03.599Z,2.92
2022-12-28T21:07:35.329Z,2.91
2022-12-28T21:10:08.299Z,2.90
2022-12-28T21:12:39.990Z,2.92
2022-12-28T21:15:13.154Z,2.92
2022-12-28T21:17:45.011Z,2.91
2022-12-28T21:20:16.749Z,2.91
2022-12-28T21:22:48.345Z,2.93
2022-12-28T21:25:20.001Z,2.94
2022-12-28T21:27:51.752Z,2.93
2022-12-28T21:30:23.343Z,2.92
2022-12-28T21:32:57.267Z,2.93
2022-12-28T21:35:33.875Z,2.94
2022-12-28T21:38:07.048Z,2.94
2022-12-28T21:40:38.685Z,2.95
2022-12-28T21:43:10.328Z,2.97
2022-12-28T21:45:41.922Z,2.99
2022-12-28T21:48:13.663Z,3.01
2022-12-28T21:50:45.281Z,3.04
2022-12-28T21:53:16.927Z,3.07
2022-12-28T21:55:48.524Z,3.10
2022-12-28T21:58:20.192Z,3.11
2022-12-28T22:01:09.526Z,3.13
2022-12-28T22:03:59.072Z,3.15
2022-12-28T22:06:31.114Z,3.15
2022-12-28T22:09:20.475Z,3.19
2022-12-28T22:12:10.105Z,3.21
2022-12-28T22:14:41.902Z,3.25
2022-12-28T22:17:14.713Z,3.27
2022-12-28T22:19:46.680Z,3.26
2022-12-28T22:22:18.420Z,3.28
2022-12-28T22:24:50.025Z,3.28
2022-12-28T22:27:21.687Z,3.32
2022-12-28T22:29:53.445Z,3.34
2022-12-28T22:32:25.624Z,3.36
2022-12-28T22:34:57.317Z,3.37
2022-12-28T22:37:29.017Z,3.39
2022-12-28T22:40:00.805Z,3.41
2022-12-28T22:42:32.995Z,3.43
2022-12-28T22:45:04.802Z,3.44
2022-12-28T22:47:36.425Z,3.44
2022-12-28T22:50:11.114Z,3.46
2022-12-28T22:52:42.746Z,3.47
2022-12-28T22:55:14.390Z,3.49
2022-12-28T22:57:46.324Z,3.50
2022-12-28T23:00:18.855Z,3.51
2022-12-28T23:02:50.816Z,3.53
2022-12-28T23:05:22.735Z,3.55
2022-12-28T23:07:54.399Z,3.56
2022-12-28T23:10:26.127Z,3.58
2022-12-28T23:12:57.716Z,3.58
2022-12-28T23:15:29.355Z,3.55
2022-12-28T23:18:21.234Z,3.54
2022-12-28T23:21:25.307Z,3.54
2022-12-28T23:24:14.830Z,3.53
2022-12-28T23:27:04.228Z,3.50
2022-12-28T23:29:35.826Z,3.47
2022-12-28T23:32:07.605Z,3.48
2022-12-28T23:34:39.222Z,3.46
2022-12-28T23:37:10.819Z,3.46
2022-12-28T23:39:42.403Z,3.45
2022-12-28T23:42:14.056Z,3.42
2022-12-28T23:44:46.154Z,3.41
2022-12-28T23:47:18.037Z,3.41
2022-12-28T23:49:50.763Z,3.40
2022-12-28T23:52:25.990Z,3.41
2022-12-28T23:54:57.941Z,3.41
2022-12-28T23:57:29.553Z,3.41
